sensor_id;sensor_type;location;lat;lon;timestamp;P1;durP1;ratioP1;P2;durP2;ratioP2
70426;SDS011;57872;55.432;37.248;2022-09-02T00:01:48;2.47;;;1.17;;
70426;SDS011;57872;55.432;37.248;2022-09-02T00:06:49;2.50;;;1.05;;
70426;SDS011;57872;55.432;37.248;2022-09-02T00:11:51;3.00;;;1.02;;
70426;SDS011;57872;55.432;37.248;2022-09-02T00:16:52;4.28;;;1.00;;
70426;SDS011;57872;55.432;37.248;2022-09-02T00:21:53;3.30;;;1.10;;
70426;SDS011;57872;55.432;37.248;2022-09-02T00:26:54;5.85;;;2.05;;
70426;SDS011;57872;55.432;37.248;2022-09-02T00:31:54;2.55;;;0.90;;
70426;SDS011;57872;55.432;37.248;2022-09-02T00:36:55;4.75;;;1.02;;
70426;SDS011;57872;55.432;37.248;2022-09-02T00:41:55;3.50;;;1.10;;
70426;SDS011;57872;55.432;37.248;2022-09-02T00:46:56;2.70;;;1.10;;
70426;SDS011;57872;55.432;37.248;2022-09-02T00:57:05;2.80;;;1.17;;
70426;SDS011;57872;55.432;37.248;2022-09-02T01:02:06;3.13;;;1.15;;
70426;SDS011;57872;55.432;37.248;2022-09-02T01:07:07;3.20;;;1.05;;
70426;SDS011;57872;55.432;37.248;2022-09-02T01:12:08;2.50;;;1.00;;
70426;SDS011;57872;55.432;37.248;2022-09-02T01:17:11;2.15;;;1.00;;
70426;SDS011;57872;55.432;37.248;2022-09-02T01:27:16;2.45;;;1.05;;
70426;SDS011;57872;55.432;37.248;2022-09-02T01:32:17;2.05;;;0.90;;
70426;SDS011;57872;55.432;37.248;2022-09-02T01:37:18;1.95;;;0.95;;
70426;SDS011;57872;55.432;37.248;2022-09-02T01:42:20;2.35;;;0.88;;
70426;SDS011;57872;55.432;37.248;2022-09-02T01:47:22;2.88;;;0.90;;
70426;SDS011;57872;55.432;37.248;2022-09-02T01:52:23;2.37;;;0.90;;
70426;SDS011;57872;55.432;37.248;2022-09-02T01:57:25;2.22;;;0.90;;
70426;SDS011;57872;55.432;37.248;2022-09-02T02:02:26;3.00;;;1.00;;
70426;SDS011;57872;55.432;37.248;2022-09-02T02:07:26;2.33;;;1.00;;
70426;SDS011;57872;55.432;37.248;2022-09-02T02:12:28;2.17;;;0.95;;
70426;SDS011;57872;55.432;37.248;2022-09-02T02:17:28;1.67;;;0.80;;
70426;SDS011;57872;55.432;37.248;2022-09-02T02:22:29;2.25;;;1.00;;
70426;SDS011;57872;55.432;37.248;2022-09-02T02:27:30;1.08;;;0.70;;
70426;SDS011;57872;55.432;37.248;2022-09-02T02:32:35;1.45;;;0.88;;
70426;SDS011;57872;55.432;37.248;2022-09-02T02:37:37;1.08;;;0.70;;
70426;SDS011;57872;55.432;37.248;2022-09-02T02:42:37;1.58;;;0.90;;
70426;SDS011;57872;55.432;37.248;2022-09-02T02:47:39;1.50;;;0.80;;
70426;SDS011;57872;55.432;37.248;2022-09-02T02:52:42;2.92;;;0.85;;
70426;SDS011;57872;55.432;37.248;2022-09-02T02:57:43;1.60;;;0.85;;
70426;SDS011;57872;55.432;37.248;2022-09-02T03:02:45;2.92;;;0.90;;
70426;SDS011;57872;55.432;37.248;2022-09-02T03:07:46;1.38;;;0.90;;
70426;SDS011;57872;55.432;37.248;2022-09-02T03:12:49;2.08;;;0.90;;
70426;SDS011;57872;55.432;37.248;2022-09-02T03:22:55;1.27;;;0.82;;
70426;SDS011;57872;55.432;37.248;2022-09-02T03:27:57;3.05;;;1.45;;
70426;SDS011;57872;55.432;37.248;2022-09-02T03:32:58;2.40;;;0.90;;
70426;SDS011;57872;55.432;37.248;2022-09-02T03:38:00;1.73;;;0.80;;
70426;SDS011;57872;55.432;37.248;2022-09-02T03:43:02;1.88;;;0.75;;
70426;SDS011;57872;55.432;37.248;2022-09-02T03:48:03;1.85;;;0.80;;
70426;SDS011;57872;55.432;37.248;2022-09-02T03:53:08;2.85;;;0.95;;
70426;SDS011;57872;55.432;37.248;2022-09-02T03:58:10;2.35;;;0.90;;
70426;SDS011;57872;55.432;37.248;2022-09-02T04:03:12;1.77;;;0.80;;
70426;SDS011;57872;55.432;37.248;2022-09-02T04:08:12;1.08;;;0.80;;
70426;SDS011;57872;55.432;37.248;2022-09-02T04:13:13;3.47;;;0.93;;
70426;SDS011;57872;55.432;37.248;2022-09-02T04:18:14;1.40;;;0.77;;
70426;SDS011;57872;55.432;37.248;2022-09-02T04:23:16;2.90;;;0.90;;
70426;SDS011;57872;55.432;37.248;2022-09-02T04:28:18;2.08;;;0.80;;
70426;SDS011;57872;55.432;37.248;2022-09-02T04:33:21;3.47;;;1.27;;
70426;SDS011;57872;55.432;37.248;2022-09-02T04:38:23;2.42;;;1.00;;
70426;SDS011;57872;55.432;37.248;2022-09-02T04:43:23;2.53;;;0.90;;
70426;SDS011;57872;55.432;37.248;2022-09-02T04:48:25;2.15;;;0.93;;
70426;SDS011;57872;55.432;37.248;2022-09-02T04:53:25;1.38;;;0.80;;
70426;SDS011;57872;55.432;37.248;2022-09-02T04:58:26;2.15;;;1.00;;
70426;SDS011;57872;55.432;37.248;2022-09-02T05:03:29;2.10;;;0.90;;
70426;SDS011;57872;55.432;37.248;2022-09-02T05:08:30;1.30;;;0.73;;
70426;SDS011;57872;55.432;37.248;2022-09-02T05:13:30;1.13;;;0.75;;
70426;SDS011;57872;55.432;37.248;2022-09-02T05:18:32;2.17;;;0.77;;
70426;SDS011;57872;55.432;37.248;2022-09-02T05:23:34;2.80;;;0.85;;
70426;SDS011;57872;55.432;37.248;2022-09-02T05:28:35;2.03;;;0.80;;
70426;SDS011;57872;55.432;37.248;2022-09-02T05:33:37;1.23;;;0.70;;
70426;SDS011;57872;55.432;37.248;2022-09-02T05:38:40;1.23;;;0.70;;
70426;SDS011;57872;55.432;37.248;2022-09-02T05:43:42;1.42;;;0.98;;
70426;SDS011;57872;55.432;37.248;2022-09-02T05:48:44;3.97;;;0.77;;
70426;SDS011;57872;55.432;37.248;2022-09-02T05:54:04;2.03;;;0.70;;
70426;SDS011;57872;55.432;37.248;2022-09-02T05:59:06;1.15;;;0.68;;
70426;SDS011;57872;55.432;37.248;2022-09-02T06:04:07;1.42;;;0.70;;
70426;SDS011;57872;55.432;37.248;2022-09-02T06:09:10;1.35;;;0.70;;
70426;SDS011;57872;55.432;37.248;2022-09-02T06:14:12;1.33;;;0.70;;
70426;SDS011;57872;55.432;37.248;2022-09-02T06:19:14;4.97;;;1.35;;
70426;SDS011;57872;55.432;37.248;2022-09-02T06:24:15;2.03;;;0.90;;
70426;SDS011;57872;55.432;37.248;2022-09-02T06:29:16;3.05;;;0.90;;
70426;SDS011;57872;55.432;37.248;2022-09-02T06:34:18;1.83;;;0.70;;
70426;SDS011;57872;55.432;37.248;2022-09-02T06:39:21;1.55;;;0.65;;
70426;SDS011;57872;55.432;37.248;2022-09-02T06:44:24;1.35;;;0.80;;
70426;SDS011;57872;55.432;37.248;2022-09-02T06:49:25;2.22;;;0.80;;
70426;SDS011;57872;55.432;37.248;2022-09-02T06:54:27;1.27;;;0.60;;
70426;SDS011;57872;55.432;37.248;2022-09-02T06:59:38;1.48;;;0.70;;
70426;SDS011;57872;55.432;37.248;2022-09-02T07:04:39;1.70;;;0.70;;
70426;SDS011;57872;55.432;37.248;2022-09-02T07:09:58;1.88;;;0.77;;
70426;SDS011;57872;55.432;37.248;2022-09-02T07:15:00;0.93;;;0.70;;
70426;SDS011;57872;55.432;37.248;2022-09-02T07:20:06;1.75;;;0.77;;
70426;SDS011;57872;55.432;37.248;2022-09-02T07:25:13;1.45;;;0.75;;
70426;SDS011;57872;55.432;37.248;2022-09-02T07:30:13;1.45;;;0.80;;
70426;SDS011;57872;55.432;37.248;2022-09-02T07:40:18;1.33;;;0.82;;
70426;SDS011;57872;55.432;37.248;2022-09-02T07:45:19;1.52;;;0.80;;
70426;SDS011;57872;55.432;37.248;2022-09-02T07:50:20;2.22;;;0.90;;
70426;SDS011;57872;55.432;37.248;2022-09-02T07:55:25;2.17;;;0.90;;
70426;SDS011;57872;55.432;37.248;2022-09-02T08:00:26;2.25;;;1.00;;
70426;SDS011;57872;55.432;37.248;2022-09-02T08:05:29;0.90;;;0.70;;
70426;SDS011;57872;55.432;37.248;2022-09-02T08:10:31;1.95;;;0.80;;
70426;SDS011;57872;55.432;37.248;2022-09-02T08:15:33;1.33;;;0.57;;
70426;SDS011;57872;55.432;37.248;2022-09-02T08:20:35;1.48;;;0.80;;
70426;SDS011;57872;55.432;37.248;2022-09-02T08:25:35;1.30;;;0.70;;
70426;SDS011;57872;55.432;37.248;2022-09-02T08:30:36;0.90;;;0.70;;
70426;SDS011;57872;55.432;37.248;2022-09-02T08:35:37;0.85;;;0.80;;
70426;SDS011;57872;55.432;37.248;2022-09-02T08:40:39;2.25;;;0.82;;
70426;SDS011;57872;55.432;37.248;2022-09-02T08:45:40;1.45;;;0.80;;
70426;SDS011;57872;55.432;37.248;2022-09-02T08:50:43;3.72;;;0.88;;
70426;SDS011;57872;55.432;37.248;2022-09-02T08:55:46;1.25;;;0.77;;
70426;SDS011;57872;55.432;37.248;2022-09-02T09:00:52;1.52;;;0.60;;
70426;SDS011;57872;55.432;37.248;2022-09-02T09:16:06;3.08;;;0.70;;
70426;SDS011;57872;55.432;37.248;2022-09-02T09:21:11;1.75;;;0.63;;
70426;SDS011;57872;55.432;37.248;2022-09-02T09:26:15;2.28;;;0.80;;
70426;SDS011;57872;55.432;37.248;2022-09-02T09:31:17;0.93;;;0.70;;
70426;SDS011;57872;55.432;37.248;2022-09-02T09:36:18;1.52;;;0.70;;
70426;SDS011;57872;55.432;37.248;2022-09-02T09:41:20;1.23;;;0.98;;
70426;SDS011;57872;55.432;37.248;2022-09-02T09:46:29;2.72;;;0.77;;
70426;SDS011;57872;55.432;37.248;2022-09-02T09:51:34;1.13;;;0.60;;
70426;SDS011;57872;55.432;37.248;2022-09-02T09:56:34;2.70;;;0.80;;
70426;SDS011;57872;55.432;37.248;2022-09-02T10:01:35;2.30;;;0.80;;
70426;SDS011;57872;55.432;37.248;2022-09-02T10:06:37;3.10;;;0.80;;
70426;SDS011;57872;55.432;37.248;2022-09-02T10:11:38;2.97;;;0.70;;
70426;SDS011;57872;55.432;37.248;2022-09-02T10:16:45;1.63;;;0.70;;
70426;SDS011;57872;55.432;37.248;2022-09-02T10:26:53;1.45;;;0.80;;
70426;SDS011;57872;55.432;37.248;2022-09-02T10:42:49;2.53;;;0.77;;
70426;SDS011;57872;55.432;37.248;2022-09-02T10:47:35;1.70;;;0.75;;
70426;SDS011;57872;55.432;37.248;2022-09-02T10:52:41;4.20;;;0.90;;
70426;SDS011;57872;55.432;37.248;2022-09-02T10:57:50;2.95;;;0.90;;
70426;SDS011;57872;55.432;37.248;2022-09-02T11:13:02;3.20;;;0.70;;
70426;SDS011;57872;55.432;37.248;2022-09-02T11:23:21;1.73;;;0.73;;
70426;SDS011;57872;55.432;37.248;2022-09-02T11:43:44;0.75;;;0.75;;
70426;SDS011;57872;55.432;37.248;2022-09-02T11:53:49;2.45;;;0.80;;
70426;SDS011;57872;55.432;37.248;2022-09-02T11:58:52;1.98;;;0.80;;
70426;SDS011;57872;55.432;37.248;2022-09-02T12:03:53;1.13;;;0.70;;
70426;SDS011;57872;55.432;37.248;2022-09-02T12:08:57;2.67;;;1.05;;
70426;SDS011;57872;55.432;37.248;2022-09-02T12:13:57;3.50;;;0.90;;
70426;SDS011;57872;55.432;37.248;2022-09-02T12:24:07;9.25;;;1.10;;
70426;SDS011;57872;55.432;37.248;2022-09-02T12:59:39;1.73;;;0.90;;
70426;SDS011;57872;55.432;37.248;2022-09-02T13:31:09;3.78;;;0.90;;
70426;SDS011;57872;55.432;37.248;2022-09-02T13:36:18;3.90;;;1.00;;
70426;SDS011;57872;55.432;37.248;2022-09-02T13:41:31;4.28;;;1.17;;
70426;SDS011;57872;55.432;37.248;2022-09-02T13:46:32;3.95;;;1.27;;
70426;SDS011;57872;55.432;37.248;2022-09-02T13:51:32;2.83;;;1.00;;
70426;SDS011;57872;55.432;37.248;2022-09-02T13:56:33;4.25;;;1.20;;
70426;SDS011;57872;55.432;37.248;2022-09-02T14:01:34;3.85;;;1.23;;
70426;SDS011;57872;55.432;37.248;2022-09-02T14:06:39;3.67;;;1.20;;
70426;SDS011;57872;55.432;37.248;2022-09-02T14:11:42;5.38;;;1.15;;
70426;SDS011;57872;55.432;37.248;2022-09-02T14:16:44;3.17;;;0.90;;
70426;SDS011;57872;55.432;37.248;2022-09-02T14:26:46;3.28;;;1.10;;
70426;SDS011;57872;55.432;37.248;2022-09-02T14:32:01;5.38;;;1.23;;
70426;SDS011;57872;55.432;37.248;2022-09-02T14:42:22;3.92;;;1.00;;
70426;SDS011;57872;55.432;37.248;2022-09-02T14:47:22;3.33;;;1.00;;
70426;SDS011;57872;55.432;37.248;2022-09-02T14:52:27;2.88;;;1.10;;
70426;SDS011;57872;55.432;37.248;2022-09-02T14:57:32;1.90;;;0.85;;
70426;SDS011;57872;55.432;37.248;2022-09-02T15:02:35;4.07;;;1.00;;
70426;SDS011;57872;55.432;37.248;2022-09-02T15:07:35;5.25;;;1.10;;
70426;SDS011;57872;55.432;37.248;2022-09-02T15:12:54;3.28;;;0.98;;
70426;SDS011;57872;55.432;37.248;2022-09-02T15:17:56;3.85;;;0.90;;
70426;SDS011;57872;55.432;37.248;2022-09-02T15:22:57;1.98;;;0.77;;
70426;SDS011;57872;55.432;37.248;2022-09-02T15:27:58;2.42;;;0.80;;
70426;SDS011;57872;55.432;37.248;2022-09-02T15:33:01;4.45;;;0.80;;
70426;SDS011;57872;55.432;37.248;2022-09-02T15:38:02;2.60;;;1.10;;
70426;SDS011;57872;55.432;37.248;2022-09-02T15:43:02;2.05;;;0.90;;
70426;SDS011;57872;55.432;37.248;2022-09-02T15:48:03;2.97;;;1.00;;
70426;SDS011;57872;55.432;37.248;2022-09-02T15:53:05;3.67;;;1.08;;
70426;SDS011;57872;55.432;37.248;2022-09-02T15:58:05;4.03;;;1.00;;
70426;SDS011;57872;55.432;37.248;2022-09-02T16:03:06;2.83;;;1.05;;
70426;SDS011;57872;55.432;37.248;2022-09-02T16:08:06;4.15;;;1.08;;
70426;SDS011;57872;55.432;37.248;2022-09-02T16:13:07;2.20;;;0.90;;
70426;SDS011;57872;55.432;37.248;2022-09-02T16:18:07;1.95;;;0.80;;
70426;SDS011;57872;55.432;37.248;2022-09-02T16:23:08;5.47;;;1.17;;
70426;SDS011;57872;55.432;37.248;2022-09-02T16:28:08;3.90;;;1.17;;
70426;SDS011;57872;55.432;37.248;2022-09-02T16:33:08;3.10;;;1.10;;
70426;SDS011;57872;55.432;37.248;2022-09-02T16:38:09;4.47;;;1.33;;
70426;SDS011;57872;55.432;37.248;2022-09-02T16:43:09;3.53;;;1.52;;
70426;SDS011;57872;55.432;37.248;2022-09-02T16:48:11;6.28;;;2.00;;
70426;SDS011;57872;55.432;37.248;2022-09-02T16:53:12;9.43;;;1.95;;
70426;SDS011;57872;55.432;37.248;2022-09-02T16:58:13;4.30;;;1.50;;
70426;SDS011;57872;55.432;37.248;2022-09-02T17:03:14;6.20;;;2.70;;
70426;SDS011;57872;55.432;37.248;2022-09-02T17:08:14;7.82;;;3.90;;
70426;SDS011;57872;55.432;37.248;2022-09-02T17:13:15;7.03;;;3.10;;
70426;SDS011;57872;55.432;37.248;2022-09-02T17:18:16;6.78;;;3.05;;
70426;SDS011;57872;55.432;37.248;2022-09-02T17:23:16;7.25;;;3.45;;
70426;SDS011;57872;55.432;37.248;2022-09-02T17:28:17;6.60;;;2.83;;
70426;SDS011;57872;55.432;37.248;2022-09-02T17:33:17;7.60;;;3.00;;
70426;SDS011;57872;55.432;37.248;2022-09-02T17:38:18;5.78;;;2.15;;
70426;SDS011;57872;55.432;37.248;2022-09-02T17:43:18;5.45;;;2.35;;
70426;SDS011;57872;55.432;37.248;2022-09-02T17:48:19;6.10;;;2.00;;
70426;SDS011;57872;55.432;37.248;2022-09-02T17:53:21;6.90;;;1.92;;
70426;SDS011;57872;55.432;37.248;2022-09-02T17:58:24;5.43;;;2.08;;
70426;SDS011;57872;55.432;37.248;2022-09-02T18:19:11;5.85;;;2.25;;
70426;SDS011;57872;55.432;37.248;2022-09-02T18:24:26;5.75;;;1.80;;
70426;SDS011;57872;55.432;37.248;2022-09-02T18:45:23;6.32;;;1.88;;
70426;SDS011;57872;55.432;37.248;2022-09-02T18:50:36;4.90;;;1.88;;
70426;SDS011;57872;55.432;37.248;2022-09-02T18:55:39;6.20;;;1.90;;
70426;SDS011;57872;55.432;37.248;2022-09-02T19:00:41;6.78;;;1.95;;
70426;SDS011;57872;55.432;37.248;2022-09-02T19:05:43;4.95;;;1.90;;
70426;SDS011;57872;55.432;37.248;2022-09-02T19:10:44;5.45;;;1.80;;
70426;SDS011;57872;55.432;37.248;2022-09-02T19:15:44;5.22;;;1.90;;
70426;SDS011;57872;55.432;37.248;2022-09-02T19:20:48;5.40;;;2.10;;
70426;SDS011;57872;55.432;37.248;2022-09-02T19:25:48;5.80;;;2.28;;
70426;SDS011;57872;55.432;37.248;2022-09-02T19:30:50;6.72;;;2.40;;
70426;SDS011;57872;55.432;37.248;2022-09-02T19:35:52;9.50;;;2.75;;
70426;SDS011;57872;55.432;37.248;2022-09-02T19:40:53;5.90;;;2.10;;
70426;SDS011;57872;55.432;37.248;2022-09-02T19:45:53;5.82;;;2.10;;
70426;SDS011;57872;55.432;37.248;2022-09-02T19:50:55;5.82;;;2.10;;
70426;SDS011;57872;55.432;37.248;2022-09-02T19:55:56;6.07;;;2.20;;
70426;SDS011;57872;55.432;37.248;2022-09-02T20:00:56;6.68;;;2.30;;
70426;SDS011;57872;55.432;37.248;2022-09-02T20:05:58;6.95;;;2.40;;
70426;SDS011;57872;55.432;37.248;2022-09-02T20:11:00;6.40;;;1.92;;
70426;SDS011;57872;55.432;37.248;2022-09-02T20:16:02;5.15;;;1.95;;
70426;SDS011;57872;55.432;37.248;2022-09-02T20:21:03;8.48;;;2.20;;
70426;SDS011;57872;55.432;37.248;2022-09-02T20:31:17;6.70;;;2.10;;
70426;SDS011;57872;55.432;37.248;2022-09-02T20:36:25;4.68;;;1.98;;
70426;SDS011;57872;55.432;37.248;2022-09-02T20:41:38;4.53;;;1.70;;
70426;SDS011;57872;55.432;37.248;2022-09-02T20:47:04;5.20;;;1.77;;
70426;SDS011;57872;55.432;37.248;2022-09-02T20:52:15;5.15;;;2.05;;
70426;SDS011;57872;55.432;37.248;2022-09-02T21:02:22;5.28;;;2.20;;
70426;SDS011;57872;55.432;37.248;2022-09-02T21:12:27;5.25;;;2.10;;
70426;SDS011;57872;55.432;37.248;2022-09-02T21:17:36;5.57;;;2.20;;
70426;SDS011;57872;55.432;37.248;2022-09-02T21:22:39;5.60;;;2.22;;
70426;SDS011;57872;55.432;37.248;2022-09-02T21:33:01;5.38;;;2.10;;
70426;SDS011;57872;55.432;37.248;2022-09-02T21:38:21;9.57;;;2.38;;
70426;SDS011;57872;55.432;37.248;2022-09-02T21:43:29;6.30;;;2.50;;
70426;SDS011;57872;55.432;37.248;2022-09-02T21:59:03;5.88;;;2.60;;
70426;SDS011;57872;55.432;37.248;2022-09-02T22:09:21;6.95;;;2.42;;
70426;SDS011;57872;55.432;37.248;2022-09-02T22:19:26;5.93;;;2.75;;
70426;SDS011;57872;55.432;37.248;2022-09-02T22:24:29;5.75;;;2.25;;
70426;SDS011;57872;55.432;37.248;2022-09-02T22:29:39;6.15;;;2.33;;
70426;SDS011;57872;55.432;37.248;2022-09-02T22:34:48;6.18;;;2.40;;
70426;SDS011;57872;55.432;37.248;2022-09-02T22:39:51;7.78;;;2.60;;
70426;SDS011;57872;55.432;37.248;2022-09-02T22:45:00;6.93;;;2.33;;
70426;SDS011;57872;55.432;37.248;2022-09-02T22:50:23;6.68;;;2.35;;
70426;SDS011;57872;55.432;37.248;2022-09-02T22:55:50;5.97;;;2.28;;
70426;SDS011;57872;55.432;37.248;2022-09-02T23:00:59;6.82;;;2.33;;
70426;SDS011;57872;55.432;37.248;2022-09-02T23:06:11;6.05;;;2.55;;
70426;SDS011;57872;55.432;37.248;2022-09-02T23:26:55;5.47;;;2.65;;
70426;SDS011;57872;55.432;37.248;2022-09-02T23:32:01;6.03;;;2.60;;
70426;SDS011;57872;55.432;37.248;2022-09-02T23:37:25;5.15;;;2.22;;
70426;SDS011;57872;55.432;37.248;2022-09-02T23:42:29;6.47;;;2.13;;
70426;SDS011;57872;55.432;37.248;2022-09-02T23:47:37;5.43;;;2.03;;
70426;SDS011;57872;55.432;37.248;2022-09-02T23:52:42;7.70;;;3.35;;
70426;SDS011;57872;55.432;37.248;2022-09-02T23:57:56;5.55;;;2.25;;
